Time;durP1;ratioP1;P1;durP2;ratioP2;P2;SDS_P1;SDS_P2;PMS_P1;PMS_P2;Temp;Humidity;BMP_temperature;BMP_pressure;BME280_temperature;BME280_humidity;BME280_pressure;Samples;Min_cycle;Max_cycle;Signal;HPM_P1;HPM_P2
2024/05/04 00:02:05;;;;;;;7.65;5.20;;;23.20;99.90;;;;;;5372481;21;20322;-48
2024/05/04 00:04:30;;;;;;;7.15;5.15;;;23.20;99.90;;;;;;5347889;26;20362;-49
2024/05/04 00:06:56;;;;;;;9.10;5.72;;;23.30;99.90;;;;;;5345870;26;19997;-50
2024/05/04 00:09:22;;;;;;;8.07;5.22;;;23.20;99.90;;;;;;5347635;26;19993;-49
2024/05/04 00:11:48;;;;;;;9.35;5.28;;;23.20;99.90;;;;;;5347418;26;20003;-50
2024/05/04 00:14:14;;;;;;;9.98;5.20;;;23.20;99.90;;;;;;5347566;26;19994;-50
2024/05/04 00:16:40;;;;;;;9.63;5.80;;;23.20;99.90;;;;;;5347550;26;19996;-50
2024/05/04 00:19:06;;;;;;;7.05;4.78;;;23.20;99.90;;;;;;5347164;26;20129;-49
2024/05/04 00:21:33;;;;;;;8.70;5.47;;;23.20;99.90;;;;;;5347673;26;20067;-50
2024/05/04 00:23:58;;;;;;;7.10;4.87;;;23.20;99.90;;;;;;5347240;26;20029;-49
2024/05/04 00:26:24;;;;;;;6.25;5.05;;;23.20;99.90;;;;;;5346467;26;21028;-49
2024/05/04 00:28:50;;;;;;;7.88;4.88;;;23.20;99.90;;;;;;5347557;26;20356;-50
2024/05/04 00:31:16;;;;;;;8.63;5.00;;;23.20;99.90;;;;;;5347552;26;20003;-49
2024/05/04 00:33:41;;;;;;;6.38;5.15;;;23.10;99.90;;;;;;5347101;26;20073;-49
2024/05/04 00:36:10;;;;;;;6.75;4.88;;;23.20;99.90;;;;;;5347263;26;20004;-48
2024/05/04 00:38:36;;;;;;;6.95;4.95;;;23.20;99.90;;;;;;5347416;26;20353;-48
2024/05/04 00:41:02;;;;;;;7.78;5.68;;;23.10;99.90;;;;;;5347800;26;20051;-50
2024/05/04 00:43:28;;;;;;;7.35;5.63;;;23.10;99.90;;;;;;5347511;26;19997;-50
2024/05/04 00:45:54;;;;;;;7.28;4.45;;;23.10;99.90;;;;;;5347085;26;20001;-50
2024/05/04 00:48:20;;;;;;;6.50;4.80;;;23.10;99.90;;;;;;5404019;26;20008;-50
2024/05/04 00:50:46;;;;;;;7.15;5.13;;;23.10;99.90;;;;;;5347136;26;20011;-51
2024/05/04 00:53:13;;;;;;;7.07;4.60;;;23.10;99.90;;;;;;5347106;26;20015;-48
2024/05/04 00:55:39;;;;;;;7.78;4.97;;;23.10;99.90;;;;;;5347126;26;20001;-48
2024/05/04 00:58:07;;;;;;;8.23;5.35;;;23.10;99.90;;;;;;5346986;26;20008;-48
2024/05/04 01:00:33;;;;;;;7.53;4.60;;;23.00;99.90;;;;;;5347277;26;20005;-49
2024/05/04 01:02:58;;;;;;;6.00;4.65;;;23.10;99.90;;;;;;5346713;26;20096;-48
2024/05/04 01:05:24;;;;;;;7.50;4.88;;;23.00;99.90;;;;;;5346899;26;19997;-50
2024/05/04 01:07:51;;;;;;;7.35;4.53;;;23.10;99.90;;;;;;5346919;26;20012;-49
2024/05/04 01:10:18;;;;;;;6.57;4.55;;;23.00;99.90;;;;;;5346974;26;20011;-49
2024/05/04 01:12:44;;;;;;;7.18;4.90;;;23.00;99.90;;;;;;5346767;26;20007;-49
2024/05/04 01:15:10;;;;;;;5.75;4.20;;;23.00;99.90;;;;;;5347037;26;20001;-48
2024/05/04 01:17:36;;;;;;;7.60;4.80;;;23.00;99.90;;;;;;5347015;26;20012;-48
2024/05/04 01:20:02;;;;;;;5.90;4.82;;;23.00;99.90;;;;;;5345028;26;20098;-49
2024/05/04 01:22:31;;;;;;;6.72;4.20;;;23.00;99.90;;;;;;5346385;26;20001;-49
2024/05/04 01:24:57;;;;;;;7.95;5.15;;;23.00;99.90;;;;;;5344707;26;20012;-49
2024/05/04 01:27:23;;;;;;;7.45;4.50;;;23.00;99.90;;;;;;5346613;26;20445;-49
2024/05/04 01:29:48;;;;;;;6.57;4.45;;;23.00;99.90;;;;;;5346584;26;20012;-50
2024/05/04 01:32:14;;;;;;;6.18;4.18;;;23.00;99.90;;;;;;5346661;26;20004;-49
2024/05/04 01:34:40;;;;;;;6.20;4.10;;;23.00;99.90;;;;;;5346491;26;19997;-50
2024/05/04 01:37:06;;;;;;;7.22;5.18;;;22.90;99.90;;;;;;5346642;26;20007;-49
2024/05/04 01:39:32;;;;;;;5.85;4.22;;;23.00;99.90;;;;;;5346384;26;20001;-51
2024/05/04 01:41:57;;;;;;;5.93;4.40;;;22.90;99.90;;;;;;5346556;26;20001;-50
2024/05/04 01:44:23;;;;;;;5.20;4.05;;;22.90;99.90;;;;;;5346543;26;20073;-50
2024/05/04 01:46:49;;;;;;;6.88;4.55;;;23.00;99.90;;;;;;5344749;26;20074;-49
2024/05/04 01:49:15;;;;;;;7.97;4.82;;;22.90;99.90;;;;;;5403479;26;20001;-49
2024/05/04 01:51:41;;;;;;;7.28;4.43;;;22.90;99.90;;;;;;5344387;26;20001;-49
2024/05/04 01:54:10;;;;;;;7.10;4.60;;;22.90;99.90;;;;;;5346515;26;19997;-49
2024/05/04 01:56:36;;;;;;;5.65;4.30;;;22.90;99.90;;;;;;5344494;26;20008;-48
2024/05/04 01:59:02;;;;;;;6.72;4.72;;;22.90;99.90;;;;;;5346093;26;20000;-48
2024/05/04 02:01:28;;;;;;;7.32;4.30;;;22.90;99.90;;;;;;5403836;26;20132;-50
2024/05/04 02:03:54;;;;;;;7.05;4.60;;;22.90;99.90;;;;;;5344516;26;20338;-49
2024/05/04 02:06:20;;;;;;;6.97;4.85;;;22.90;99.90;;;;;;5346222;26;20045;-49
2024/05/04 02:08:45;;;;;;;6.00;4.60;;;22.90;99.90;;;;;;5346029;26;19997;-49
2024/05/04 02:11:11;;;;;;;7.63;4.85;;;22.90;99.90;;;;;;5346238;26;20337;-50
2024/05/04 02:13:37;;;;;;;5.47;4.32;;;22.80;99.90;;;;;;5346117;26;20001;-50
2024/05/04 02:16:03;;;;;;;6.93;4.45;;;22.90;99.90;;;;;;5346018;26;20348;-50
2024/05/04 02:18:29;;;;;;;5.60;4.32;;;22.90;99.90;;;;;;5345638;26;20001;-49
2024/05/04 02:20:54;;;;;;;8.02;4.57;;;22.80;99.90;;;;;;5345985;26;19997;-49
2024/05/04 02:23:20;;;;;;;7.45;4.97;;;22.80;99.90;;;;;;5340122;26;20082;-50
2024/05/04 02:25:49;;;;;;;7.75;4.90;;;22.80;99.90;;;;;;5329300;26;20012;-51
2024/05/04 02:28:14;;;;;;;5.30;4.15;;;22.80;99.90;;;;;;5345211;26;20364;-50
2024/05/04 02:30:40;;;;;;;6.57;4.68;;;22.80;99.90;;;;;;5343642;26;20001;-51
2024/05/04 02:33:13;;;;;;;5.55;4.50;;;22.80;99.90;;;;;;5342706;26;20009;-50
2024/05/04 02:35:39;;;;;;;6.55;4.30;;;22.80;99.90;;;;;;5342361;26;19997;-50
2024/05/04 02:38:04;;;;;;;6.72;4.72;;;22.80;99.90;;;;;;5341977;26;20001;-50
2024/05/04 02:40:30;;;;;;;5.22;3.85;;;22.80;99.90;;;;;;5341920;26;20108;-49
2024/05/04 02:42:56;;;;;;;8.10;5.07;;;22.80;99.90;;;;;;5341449;26;20012;-50
2024/05/04 02:45:22;;;;;;;5.95;4.40;;;22.70;99.90;;;;;;5341903;26;19997;-50
2024/05/04 02:47:47;;;;;;;5.45;4.13;;;22.70;99.90;;;;;;5342853;26;20059;-51
2024/05/04 02:50:13;;;;;;;5.65;4.00;;;22.80;99.90;;;;;;5347829;26;20008;-49
2024/05/04 02:52:39;;;;;;;5.68;4.22;;;22.80;99.90;;;;;;5348834;26;20005;-50
2024/05/04 02:55:05;;;;;;;5.20;3.75;;;22.70;99.90;;;;;;5348524;26;20013;-50
2024/05/04 02:57:31;;;;;;;6.70;4.35;;;22.70;99.90;;;;;;5405611;26;20001;-50
2024/05/04 02:59:57;;;;;;;6.70;4.30;;;22.70;99.90;;;;;;5348590;26;19997;-49
2024/05/04 03:02:22;;;;;;;5.20;4.28;;;22.70;99.90;;;;;;5406435;26;20046;-49
2024/05/04 03:04:48;;;;;;;6.07;4.15;;;22.70;99.90;;;;;;5348520;26;20008;-49
2024/05/04 03:07:14;;;;;;;7.35;4.22;;;22.70;99.90;;;;;;5348548;26;20012;-49
2024/05/04 03:09:43;;;;;;;4.85;3.83;;;22.70;99.90;;;;;;5348894;26;20009;-48
2024/05/04 03:12:09;;;;;;;7.70;4.13;;;22.70;99.90;;;;;;5348931;26;20033;-50
2024/05/04 03:14:37;;;;;;;7.00;4.10;;;22.70;99.90;;;;;;5348259;26;20349;-49
2024/05/04 03:17:03;;;;;;;6.20;4.47;;;22.70;99.90;;;;;;5348373;26;19997;-50
2024/05/04 03:19:29;;;;;;;6.18;4.32;;;22.70;99.90;;;;;;5348319;26;20000;-50
2024/05/04 03:21:55;;;;;;;6.72;4.43;;;22.70;99.90;;;;;;5348444;26;19996;-50
2024/05/04 03:24:23;;;;;;;6.53;4.53;;;22.70;99.90;;;;;;5348242;26;20459;-49
2024/05/04 03:26:49;;;;;;;4.20;3.40;;;22.70;99.90;;;;;;5348185;26;19997;-49
2024/05/04 03:29:15;;;;;;;5.60;4.18;;;22.60;99.90;;;;;;5348237;26;20360;-49
2024/05/04 03:31:40;;;;;;;5.55;3.80;;;22.60;99.90;;;;;;5348554;26;20011;-48
2024/05/04 03:34:06;;;;;;;5.35;3.70;;;22.60;99.90;;;;;;5348259;26;20396;-55
2024/05/04 03:36:32;;;;;;;5.00;3.95;;;22.60;99.90;;;;;;5348291;26;20016;-49
2024/05/04 03:38:58;;;;;;;6.43;4.47;;;22.70;99.90;;;;;;5346184;26;19997;-49
2024/05/04 03:41:24;;;;;;;7.05;3.90;;;22.60;99.90;;;;;;5348044;26;20015;-49
2024/05/04 03:43:49;;;;;;;5.60;4.43;;;22.60;99.90;;;;;;5405257;26;20410;-50
2024/05/04 03:46:19;;;;;;;4.80;3.47;;;22.60;99.90;;;;;;5348039;26;20016;-48
2024/05/04 03:48:45;;;;;;;4.63;3.28;;;22.60;99.90;;;;;;5347923;26;20001;-54
2024/05/04 03:51:12;;;;;;;5.28;3.88;;;22.60;99.90;;;;;;5348216;26;20441;-50
2024/05/04 03:53:37;;;;;;;5.18;4.03;;;22.60;99.90;;;;;;5345888;26;20386;-50
2024/05/04 03:56:03;;;;;;;5.38;3.50;;;22.60;99.90;;;;;;5344455;26;19997;-49
2024/05/04 03:58:29;;;;;;;4.20;3.28;;;22.60;99.90;;;;;;5344350;26;20007;-51
2024/05/04 04:00:55;;;;;;;7.50;4.20;;;22.60;99.90;;;;;;5339452;26;20012;-48
2024/05/04 04:03:21;;;;;;;4.93;3.70;;;22.60;99.90;;;;;;5343238;26;19997;-49
2024/05/04 04:05:47;;;;;;;6.43;3.63;;;22.60;99.90;;;;;;5341669;26;20036;-52
2024/05/04 04:08:12;;;;;;;6.25;4.00;;;22.60;99.90;;;;;;5332513;26;20000;-50
2024/05/04 04:10:38;;;;;;;5.35;3.63;;;22.60;99.90;;;;;;5345367;26;20016;-49
2024/05/04 04:13:04;;;;;;;4.65;3.80;;;22.60;99.90;;;;;;5325880;26;20016;-49
2024/05/04 04:15:30;;;;;;;5.78;3.40;;;22.60;99.90;;;;;;5331180;26;20001;-49
2024/05/04 04:17:55;;;;;;;4.60;3.58;;;22.60;99.90;;;;;;5328924;26;20327;-49
2024/05/04 04:20:21;;;;;;;5.47;3.72;;;22.50;99.90;;;;;;5346302;26;20009;-50
2024/05/04 04:22:47;;;;;;;3.88;3.17;;;22.50;99.90;;;;;;5346975;26;20015;-50
2024/05/04 04:25:13;;;;;;;7.32;3.47;;;22.60;99.90;;;;;;5347765;26;20000;-52
2024/05/04 04:27:38;;;;;;;4.60;3.17;;;22.60;99.90;;;;;;5347690;26;20044;-51
2024/05/04 04:30:05;;;;;;;5.22;3.60;;;22.50;99.90;;;;;;5347615;26;19993;-51
2024/05/04 04:32:31;;;;;;;4.35;3.13;;;22.50;99.90;;;;;;5347463;26;20040;-52
2024/05/04 04:34:56;;;;;;;5.47;3.42;;;22.60;99.90;;;;;;5347416;26;20009;-52
2024/05/04 04:37:22;;;;;;;5.40;3.67;;;22.50;99.90;;;;;;5347287;26;20348;-52
2024/05/04 04:39:48;;;;;;;5.57;3.40;;;22.50;99.90;;;;;;5347468;26;20001;-52
2024/05/04 04:42:14;;;;;;;7.72;3.05;;;22.50;99.90;;;;;;5347650;26;20000;-52
2024/05/04 04:44:39;;;;;;;8.80;3.53;;;22.50;99.90;;;;;;5347294;26;20069;-52
2024/05/04 04:47:05;;;;;;;4.78;3.25;;;22.50;99.90;;;;;;5345570;26;19993;-52
2024/05/04 04:49:31;;;;;;;7.18;3.45;;;22.50;99.90;;;;;;5347148;26;20070;-52
2024/05/04 04:51:57;;;;;;;5.63;2.55;;;22.50;99.90;;;;;;5347194;26;19992;-52
2024/05/04 04:54:22;;;;;;;3.85;3.08;;;22.50;99.90;;;;;;5347466;26;19997;-51
2024/05/04 04:56:48;;;;;;;4.65;2.70;;;22.50;99.90;;;;;;5345659;26;20321;-49
2024/05/04 04:59:14;;;;;;;4.63;2.80;;;22.50;99.90;;;;;;5347159;26;20329;-50
2024/05/04 05:01:42;;;;;;;4.70;2.95;;;22.40;99.90;;;;;;5347002;26;19996;-51
2024/05/04 05:04:08;;;;;;;4.85;3.17;;;22.50;99.90;;;;;;5347011;26;20334;-51
2024/05/04 05:06:33;;;;;;;6.35;3.03;;;22.50;99.90;;;;;;5347006;26;20008;-52
2024/05/04 05:08:59;;;;;;;6.50;3.30;;;22.50;99.90;;;;;;5347100;26;20000;-51
2024/05/04 05:11:27;;;;;;;6.07;2.53;;;22.40;99.90;;;;;;5346308;26;20388;-51
2024/05/04 05:13:53;;;;;;;3.95;2.65;;;22.40;99.90;;;;;;5345218;26;19997;-49
2024/05/04 05:16:20;;;;;;;4.47;2.75;;;22.40;99.90;;;;;;5347118;26;20416;-49
2024/05/04 05:18:46;;;;;;;4.70;2.80;;;22.40;99.90;;;;;;5346993;26;20045;-50
2024/05/04 05:21:13;;;;;;;5.68;3.38;;;22.40;99.90;;;;;;5345156;26;20219;-50
2024/05/04 05:23:40;;;;;;;6.72;3.50;;;22.40;99.90;;;;;;5346888;26;19997;-50
2024/05/04 05:26:05;;;;;;;3.97;3.17;;;22.40;99.90;;;;;;5346784;26;19996;-51
2024/05/04 05:28:31;;;;;;;4.60;2.55;;;22.40;99.90;;;;;;5346729;26;20012;-50
2024/05/04 05:30:57;;;;;;;8.80;3.50;;;22.40;99.90;;;;;;5346533;26;20003;-50
2024/05/04 05:33:23;;;;;;;3.83;3.05;;;22.40;99.90;;;;;;5338738;26;20434;-49
2024/05/04 05:35:49;;;;;;;5.57;2.92;;;22.40;99.90;;;;;;5330933;26;20015;-50
2024/05/04 05:38:15;;;;;;;5.43;3.38;;;22.40;99.90;;;;;;5323441;26;20078;-50
2024/05/04 05:40:41;;;;;;;4.13;3.00;;;22.40;99.90;;;;;;5317153;26;20005;-50
2024/05/04 05:43:07;;;;;;;5.80;2.70;;;22.40;99.90;;;;;;5327500;26;20002;-50
2024/05/04 05:45:33;;;;;;;3.50;2.30;;;22.40;99.90;;;;;;5346228;26;20001;-50
2024/05/04 05:47:59;;;;;;;8.98;2.50;;;22.40;99.90;;;;;;5345963;26;20041;-50
2024/05/04 05:50:25;;;;;;;3.50;2.33;;;22.40;99.90;;;;;;5330508;26;20002;-50
2024/05/04 05:52:51;;;;;;;3.70;2.42;;;22.40;99.90;;;;;;5323890;26;20005;-50
2024/05/04 05:55:17;;;;;;;4.68;2.25;;;22.30;99.90;;;;;;5342634;26;20439;-51
2024/05/04 05:57:43;;;;;;;5.70;2.23;;;22.40;99.90;;;;;;5345646;26;20058;-50
2024/05/04 06:00:10;;;;;;;3.08;2.55;;;22.40;99.90;;;;;;5345698;26;20433;-50
2024/05/04 06:02:35;;;;;;;4.15;2.60;;;22.40;99.90;;;;;;5398318;26;19997;-50
2024/05/04 06:05:01;;;;;;;5.75;2.60;;;22.40;99.90;;;;;;5342606;26;19993;-50
2024/05/04 06:07:27;;;;;;;3.10;2.50;;;22.40;99.90;;;;;;5342364;26;20008;-50
2024/05/04 06:09:53;;;;;;;5.40;2.58;;;22.30;99.90;;;;;;5342788;26;19997;-51
2024/05/04 06:12:19;;;;;;;3.40;2.30;;;22.30;99.90;;;;;;5343036;26;20682;-51
2024/05/04 06:14:45;;;;;;;4.03;2.58;;;22.30;99.90;;;;;;5340699;26;20005;-50
2024/05/04 06:17:10;;;;;;;4.65;2.50;;;22.30;99.90;;;;;;5343713;26;20453;-50
2024/05/04 06:19:38;;;;;;;4.53;2.63;;;22.30;99.90;;;;;;5344133;26;19997;-50
2024/05/04 06:22:04;;;;;;;4.30;2.35;;;22.30;99.90;;;;;;5346113;26;20321;-50
2024/05/04 06:24:30;;;;;;;2.47;1.85;;;22.30;99.90;;;;;;5344544;26;19997;-50
2024/05/04 06:26:56;;;;;;;3.25;2.40;;;22.30;99.90;;;;;;5345969;26;20005;-51
2024/05/04 06:29:21;;;;;;;4.20;2.45;;;22.40;99.90;;;;;;5345854;26;20004;-51
2024/05/04 06:31:47;;;;;;;3.88;2.40;;;22.30;99.90;;;;;;5345599;26;20012;-51
2024/05/04 06:34:13;;;;;;;3.42;2.33;;;22.30;99.90;;;;;;5345665;26;19993;-51
2024/05/04 06:36:39;;;;;;;12.25;2.40;;;22.30;99.90;;;;;;5345506;26;20004;-51
2024/05/04 06:39:06;;;;;;;4.60;2.50;;;22.30;99.90;;;;;;5345380;26;20005;-51
2024/05/04 06:41:32;;;;;;;4.05;2.45;;;22.30;99.90;;;;;;5345495;26;20004;-51
2024/05/04 06:43:58;;;;;;;3.78;2.40;;;22.30;99.90;;;;;;5343619;26;20477;-50
2024/05/04 06:46:24;;;;;;;3.20;2.60;;;22.30;99.90;;;;;;5345585;26;20337;-50
2024/05/04 06:48:50;;;;;;;3.70;2.45;;;22.30;99.90;;;;;;5345651;26;20025;-50
2024/05/04 06:51:16;;;;;;;3.20;2.38;;;22.30;99.90;;;;;;5345465;26;20084;-49
2024/05/04 06:53:42;;;;;;;3.38;2.28;;;22.30;99.90;;;;;;5345367;26;19997;-49
2024/05/04 06:56:08;;;;;;;3.67;2.30;;;22.30;99.90;;;;;;5345200;26;20058;-49
2024/05/04 06:58:34;;;;;;;3.15;2.10;;;22.30;99.90;;;;;;5345129;26;19997;-49
2024/05/04 07:01:00;;;;;;;2.85;2.00;;;22.30;99.90;;;;;;5345145;26;20429;-49
2024/05/04 07:03:28;;;;;;;2.97;2.15;;;22.30;99.90;;;;;;5345093;26;20311;-49
2024/05/04 07:05:55;;;;;;;3.20;2.10;;;22.30;99.90;;;;;;5345270;26;20009;-49
2024/05/04 07:08:21;;;;;;;3.90;2.10;;;22.30;99.90;;;;;;5345501;26;20027;-49
2024/05/04 07:10:47;;;;;;;2.63;2.10;;;22.40;99.90;;;;;;5345371;26;20000;-49
2024/05/04 07:13:13;;;;;;;4.35;2.10;;;22.30;99.90;;;;;;5345240;26;20004;-51
2024/05/04 07:15:39;;;;;;;2.20;1.90;;;22.40;99.90;;;;;;5345027;26;20008;-50
2024/05/04 07:18:07;;;;;;;2.55;2.03;;;22.30;99.90;;;;;;5344861;26;20006;-50
2024/05/04 07:20:33;;;;;;;3.10;2.10;;;22.30;99.90;;;;;;5345061;26;20070;-49
2024/05/04 07:22:58;;;;;;;3.83;1.73;;;22.30;99.90;;;;;;5344931;26;19997;-53
2024/05/04 07:25:24;;;;;;;3.42;1.80;;;22.30;99.90;;;;;;5345226;26;19997;-49
2024/05/04 07:27:50;;;;;;;3.55;2.08;;;22.40;99.90;;;;;;5345041;26;19997;-50
2024/05/04 07:30:16;;;;;;;2.72;1.85;;;22.30;99.90;;;;;;5344746;26;20004;-50
2024/05/04 07:32:41;;;;;;;2.33;1.60;;;22.30;99.90;;;;;;5344619;26;20523;-49
2024/05/04 07:35:07;;;;;;;3.00;1.58;;;22.40;99.90;;;;;;5402894;26;20000;-49
2024/05/04 07:37:33;;;;;;;3.13;2.08;;;22.40;99.90;;;;;;5346184;26;20012;-49
2024/05/04 07:39:59;;;;;;;2.72;1.98;;;22.40;99.90;;;;;;5346241;26;20458;-50
2024/05/04 07:42:24;;;;;;;4.70;2.40;;;22.30;99.90;;;;;;5348333;26;20334;-50
2024/05/04 07:44:50;;;;;;;2.72;2.20;;;22.40;99.90;;;;;;5348007;26;19997;-51
2024/05/04 07:47:16;;;;;;;4.00;2.10;;;22.40;99.90;;;;;;5348050;26;19997;-50
2024/05/04 07:49:42;;;;;;;3.53;2.03;;;22.40;99.90;;;;;;5348051;26;20071;-51
2024/05/04 07:52:11;;;;;;;2.70;1.80;;;22.30;99.90;;;;;;5348076;26;20001;-51
2024/05/04 07:54:37;;;;;;;2.55;1.88;;;22.40;99.90;;;;;;5347646;26;20324;-51
2024/05/04 07:57:04;;;;;;;3.75;2.00;;;22.30;99.90;;;;;;5347900;26;19997;-51
2024/05/04 07:59:29;;;;;;;4.50;1.85;;;22.40;99.90;;;;;;5347918;26;19997;-51
2024/05/04 08:01:55;;;;;;;3.30;2.35;;;22.40;99.90;;;;;;5348028;26;20337;-50
2024/05/04 08:04:21;;;;;;;2.55;2.35;;;22.40;99.90;;;;;;5345994;26;20001;-51
2024/05/04 08:06:47;;;;;;;7.00;2.78;;;22.40;99.90;;;;;;5347817;26;20000;-50
2024/05/04 08:09:14;;;;;;;3.25;2.20;;;22.40;99.90;;;;;;5347800;26;20001;-50
2024/05/04 08:11:39;;;;;;;3.60;2.08;;;22.40;99.90;;;;;;5404727;26;20420;-52
2024/05/04 08:14:05;;;;;;;3.75;2.40;;;22.40;99.90;;;;;;5347639;26;19997;-50
2024/05/04 08:16:31;;;;;;;3.15;2.40;;;22.40;99.90;;;;;;5347693;26;20074;-50
2024/05/04 08:18:59;;;;;;;4.05;1.65;;;22.40;99.90;;;;;;5347555;26;20441;-51
2024/05/04 08:21:26;;;;;;;5.35;2.17;;;22.40;99.90;;;;;;5348015;26;20008;-49
2024/05/04 08:23:52;;;;;;;2.70;2.10;;;22.40;99.90;;;;;;5347770;26;20007;-50
2024/05/04 08:26:18;;;;;;;3.03;2.25;;;22.40;99.90;;;;;;5347476;26;20306;-51
2024/05/04 08:28:43;;;;;;;3.45;2.17;;;22.40;99.90;;;;;;5347449;26;20048;-51
2024/05/04 08:31:09;;;;;;;2.42;2.10;;;22.40;99.90;;;;;;5347373;26;20004;-51
2024/05/04 08:33:35;;;;;;;4.00;2.20;;;22.30;99.90;;;;;;5347438;26;20011;-52
2024/05/04 08:36:01;;;;;;;3.03;2.28;;;22.40;99.90;;;;;;5347331;26;20007;-51
2024/05/04 08:38:26;;;;;;;3.25;2.38;;;22.40;99.90;;;;;;5347597;26;19997;-51
2024/05/04 08:40:52;;;;;;;2.50;2.25;;;22.40;99.90;;;;;;5345516;26;20638;-50
2024/05/04 08:43:19;;;;;;;4.38;2.38;;;22.40;99.90;;;;;;5404324;26;20001;-51
2024/05/04 08:45:45;;;;;;;3.35;2.63;;;22.40;99.90;;;;;;5347347;26;20001;-50
2024/05/04 08:48:14;;;;;;;4.57;2.38;;;22.40;99.90;;;;;;5346381;26;20488;-51
2024/05/04 08:50:46;;;;;;;3.40;2.08;;;22.40;99.90;;;;;;5347308;26;20037;-51
2024/05/04 08:53:12;;;;;;;4.00;2.40;;;22.40;99.90;;;;;;5347140;26;20013;-58
2024/05/04 08:55:38;;;;;;;2.33;1.92;;;22.40;99.90;;;;;;5347153;26;20001;-51
2024/05/04 08:58:05;;;;;;;2.60;2.13;;;22.40;99.90;;;;;;5347072;26;20079;-51
2024/05/04 09:00:32;;;;;;;4.53;2.30;;;22.40;99.90;;;;;;5347068;26;20004;-50
2024/05/04 09:02:58;;;;;;;4.28;2.30;;;22.40;99.90;;;;;;5347257;26;19997;-52
2024/05/04 09:05:25;;;;;;;5.03;2.08;;;22.40;99.90;;;;;;5346804;26;20027;-49
2024/05/04 09:07:52;;;;;;;5.43;2.50;;;22.40;99.90;;;;;;5346886;26;20464;-50
2024/05/04 09:10:20;;;;;;;3.63;2.47;;;22.40;99.90;;;;;;5337457;26;20329;-51
2024/05/04 09:12:46;;;;;;;4.35;2.50;;;22.40;99.90;;;;;;5313370;26;20002;-51
2024/05/04 09:15:12;;;;;;;5.32;2.47;;;22.40;99.90;;;;;;5308545;27;20013;-52
2024/05/04 09:17:39;;;;;;;5.82;2.88;;;22.40;99.90;;;;;;5308542;27;19997;-52
2024/05/04 09:20:05;;;;;;;4.53;2.97;;;22.40;99.90;;;;;;5315666;26;20005;-51
2024/05/04 09:22:31;;;;;;;5.25;4.03;;;22.40;99.90;;;;;;5341452;26;19993;-52
2024/05/04 09:25:00;;;;;;;4.85;3.42;;;22.40;99.90;;;;;;5342947;26;19996;-51
2024/05/04 09:27:27;;;;;;;6.18;4.05;;;22.40;99.90;;;;;;5343027;26;19997;-52
2024/05/04 09:29:53;;;;;;;7.63;4.25;;;22.40;99.90;;;;;;5343000;26;20036;-52
2024/05/04 09:32:21;;;;;;;6.38;4.32;;;22.40;99.90;;;;;;5399595;26;20019;-51
2024/05/04 09:34:57;;;;;;;7.68;5.18;;;22.40;99.90;;;;;;5343004;26;20070;-51
2024/05/04 09:37:35;;;;;;;8.85;5.20;;;22.40;99.90;;;;;;5345770;26;20481;-50
2024/05/04 09:40:02;;;;;;;10.20;7.15;;;22.40;99.90;;;;;;5346918;26;20001;-51
2024/05/04 09:42:28;;;;;;;9.25;6.22;;;22.40;99.90;;;;;;5346059;26;20024;-52
2024/05/04 09:44:57;;;;;;;9.38;6.68;;;22.40;99.90;;;;;;5346149;26;19997;-50
2024/05/04 09:47:29;;;;;;;10.88;7.10;;;22.40;99.90;;;;;;5344528;26;20007;-51
2024/05/04 09:49:58;;;;;;;10.90;6.93;;;22.40;99.90;;;;;;5346196;26;20003;-52
2024/05/04 09:52:25;;;;;;;11.32;7.53;;;22.50;99.90;;;;;;5346264;26;20078;-51
2024/05/04 09:54:55;;;;;;;11.77;7.50;;;22.40;99.90;;;;;;5346364;26;20004;-51
2024/05/04 09:57:28;;;;;;;11.02;7.38;;;22.50;99.90;;;;;;5346017;26;20013;-52
2024/05/04 09:59:59;;;;;;;10.15;7.07;;;22.50;99.90;;;;;;5346302;26;20075;-51
2024/05/04 10:02:27;;;;;;;9.00;6.78;;;22.40;99.90;;;;;;5346344;26;19997;-53
2024/05/04 10:04:56;;;;;;;12.27;7.78;;;22.50;99.90;;;;;;5345969;26;20318;-52
2024/05/04 10:07:23;;;;;;;9.40;7.05;;;22.50;99.90;;;;;;5346044;26;20004;-52
2024/05/04 10:09:53;;;;;;;8.35;6.18;;;22.50;99.90;;;;;;5346083;26;20427;-52
2024/05/04 10:12:19;;;;;;;10.27;6.75;;;22.50;99.90;;;;;;5346055;26;20071;-51
2024/05/04 10:14:45;;;;;;;9.95;6.82;;;22.50;99.90;;;;;;5345813;26;20444;-52
2024/05/04 10:17:12;;;;;;;10.90;6.53;;;22.50;99.90;;;;;;5345600;26;20012;-52
2024/05/04 10:19:38;;;;;;;12.93;6.95;;;22.50;99.90;;;;;;5343910;26;20076;-52
2024/05/04 10:22:11;;;;;;;8.38;5.82;;;22.50;99.90;;;;;;5346085;26;20034;-51
2024/05/04 10:24:37;;;;;;;8.98;5.55;;;22.50;99.90;;;;;;5345763;26;20005;-51
2024/05/04 10:27:03;;;;;;;8.32;5.50;;;22.50;99.90;;;;;;5346050;26;20007;-51
2024/05/04 10:29:36;;;;;;;10.77;5.38;;;22.50;99.90;;;;;;5345610;26;20001;-49
2024/05/04 10:32:04;;;;;;;7.57;5.85;;;22.50;99.90;;;;;;5346059;26;19996;-51
2024/05/04 10:34:30;;;;;;;8.50;5.88;;;22.60;99.90;;;;;;5345810;26;20008;-50
2024/05/04 10:36:58;;;;;;;10.40;5.80;;;22.60;99.90;;;;;;5343862;26;20005;-51
2024/05/04 10:39:35;;;;;;;10.10;5.32;;;22.60;99.90;;;;;;5345302;26;20078;-50
2024/05/04 10:42:05;;;;;;;7.95;5.85;;;22.60;99.90;;;;;;5345752;26;19996;-51
2024/05/04 10:44:36;;;;;;;10.10;5.78;;;22.60;99.90;;;;;;5345569;26;20007;-52
2024/05/04 10:47:03;;;;;;;7.55;5.28;;;22.60;99.90;;;;;;5345726;26;20008;-51
2024/05/04 10:49:29;;;;;;;7.95;5.50;;;22.60;99.90;;;;;;5345535;26;20483;-50
2024/05/04 10:52:00;;;;;;;6.63;4.78;;;22.60;99.90;;;;;;5345190;26;20298;-50
2024/05/04 10:54:26;;;;;;;7.22;5.25;;;22.70;99.90;;;;;;5344389;26;19997;-50
2024/05/04 10:56:52;;;;;;;8.00;4.57;;;22.70;99.90;;;;;;5343674;26;20348;-52
2024/05/04 10:59:19;;;;;;;7.78;4.78;;;22.70;99.90;;;;;;5344685;26;20005;-51
2024/05/04 11:01:46;;;;;;;8.02;5.05;;;22.60;99.90;;;;;;5344758;26;20001;-52
2024/05/04 11:04:13;;;;;;;7.95;5.32;;;22.70;99.90;;;;;;5344137;26;20000;-51
2024/05/04 11:06:39;;;;;;;6.82;4.97;;;22.70;99.90;;;;;;5343803;26;20005;-51
2024/05/04 11:09:05;;;;;;;7.07;4.70;;;22.70;99.90;;;;;;5344454;26;20548;-51
2024/05/04 11:11:31;;;;;;;7.50;4.90;;;22.70;99.90;;;;;;5348053;26;20008;-52
2024/05/04 11:13:58;;;;;;;9.32;5.03;;;22.80;99.90;;;;;;5348253;26;20016;-51
2024/05/04 11:16:25;;;;;;;8.40;4.90;;;22.70;99.90;;;;;;5348116;26;20004;-50
2024/05/04 11:18:57;;;;;;;8.90;4.22;;;22.80;99.90;;;;;;5347883;26;20100;-51
2024/05/04 11:21:40;;;;;;;8.00;4.63;;;22.80;99.90;;;;;;5346608;26;20004;-51
2024/05/04 11:24:12;;;;;;;10.00;4.55;;;22.80;99.90;;;;;;5347289;26;20496;-49
2024/05/04 11:26:38;;;;;;;15.93;4.50;;;22.80;99.90;;;;;;5337675;26;20032;-49
2024/05/04 11:29:20;;;;;;;5.50;4.10;;;22.80;99.90;;;;;;5347551;26;20016;-50
2024/05/04 11:31:46;;;;;;;5.30;2.38;;;22.90;99.90;;;;;;5345794;26;20005;-51
2024/05/04 11:34:12;;;;;;;7.13;3.40;;;22.90;99.90;;;;;;5347639;26;20016;-52
2024/05/04 11:36:40;;;;;;;8.68;5.38;;;22.80;99.90;;;;;;5350683;26;20452;-54
2024/05/04 11:39:06;;;;;;;9.18;4.18;;;22.80;99.90;;;;;;5363720;26;20009;-54
2024/05/04 11:41:32;;;;;;;5.82;3.58;;;22.80;99.90;;;;;;5362523;26;20001;-52
2024/05/04 11:43:58;;;;;;;4.05;2.65;;;22.80;99.90;;;;;;5365407;26;20000;-52
2024/05/04 11:46:24;;;;;;;4.40;2.00;;;22.80;99.90;;;;;;5363180;26;20001;-53
2024/05/04 11:48:52;;;;;;;6.45;1.90;;;22.70;99.90;;;;;;5362527;26;20063;-53
2024/05/04 11:51:18;;;;;;;3.70;1.70;;;22.70;99.90;;;;;;5347682;26;20001;-55
2024/05/04 11:53:44;;;;;;;5.22;2.15;;;22.70;99.90;;;;;;5347751;26;20001;-54
2024/05/04 11:56:10;;;;;;;7.03;2.13;;;22.70;99.90;;;;;;5345808;26;20341;-50
2024/05/04 11:58:36;;;;;;;5.15;2.20;;;22.70;99.90;;;;;;5361692;26;20012;-52
2024/05/04 12:01:02;;;;;;;5.65;1.50;;;22.70;99.90;;;;;;5361470;26;20001;-52
2024/05/04 12:03:28;;;;;;;7.60;2.30;;;22.70;99.90;;;;;;5361464;26;20000;-54
2024/05/04 12:05:54;;;;;;;5.88;2.00;;;22.70;99.90;;;;;;5382393;26;20004;-55
2024/05/04 12:08:19;;;;;;;6.22;2.30;;;22.70;99.90;;;;;;5380448;26;20341;-54
2024/05/04 12:10:46;;;;;;;5.95;2.85;;;22.70;99.90;;;;;;5347065;26;20017;-49
2024/05/04 12:13:12;;;;;;;6.80;2.80;;;22.80;99.90;;;;;;5347233;26;20433;-52
2024/05/04 12:15:38;;;;;;;7.20;2.30;;;22.80;99.90;;;;;;5345723;26;20095;-50
2024/05/04 12:18:05;;;;;;;6.82;2.53;;;22.80;99.90;;;;;;5346890;26;20445;-50
2024/05/04 12:20:32;;;;;;;9.95;5.63;;;22.80;99.90;;;;;;5315967;26;20443;-51
2024/05/04 12:22:57;;;;;;;8.93;3.45;;;22.80;99.90;;;;;;5343967;26;20037;-51
2024/05/04 12:25:23;;;;;;;7.80;3.90;;;22.80;99.90;;;;;;5347147;26;20005;-53
2024/05/04 12:27:49;;;;;;;9.02;2.50;;;22.80;99.90;;;;;;5346966;26;20015;-49
2024/05/04 12:30:15;;;;;;;8.77;2.63;;;22.80;99.90;;;;;;5346412;26;20016;-48
2024/05/04 12:32:41;;;;;;;8.50;2.90;;;22.80;99.90;;;;;;5347387;26;20438;-48
2024/05/04 12:35:10;;;;;;;10.10;3.38;;;22.80;99.90;;;;;;5347287;26;20001;-49
2024/05/04 12:37:40;;;;;;;7.88;3.17;;;22.90;99.90;;;;;;5346939;26;20074;-49
2024/05/04 12:40:06;;;;;;;10.13;5.25;;;22.90;99.90;;;;;;5347079;26;20001;-49
2024/05/04 12:42:32;;;;;;;7.03;4.97;;;22.90;99.90;;;;;;5346752;26;20401;-50